sensor_id;sensor_type;location;lat;lon;timestamp;pressure;altitude;pressure_sealevel;temperature;humidity
79705;BME280;69940;53.120;8.764;2023-07-31T00:00:47;100900.00;;;17.88;75.61
79705;BME280;69940;53.120;8.764;2023-07-31T00:03:16;100897.00;;;17.88;75.71
79705;BME280;69940;53.120;8.764;2023-07-31T00:05:46;100893.00;;;17.88;75.85
79705;BME280;69940;53.120;8.764;2023-07-31T00:08:16;100889.00;;;17.89;75.94
79705;BME280;69940;53.120;8.764;2023-07-31T00:10:46;100887.00;;;17.89;76.13
79705;BME280;69940;53.120;8.764;2023-07-31T00:13:16;100888.00;;;17.89;76.25
79705;BME280;69940;53.120;8.764;2023-07-31T00:15:46;100887.00;;;17.89;76.31
79705;BME280;69940;53.120;8.764;2023-07-31T00:18:16;100885.00;;;17.89;76.45
79705;BME280;69940;53.120;8.764;2023-07-31T00:20:46;100884.00;;;17.89;76.50
79705;BME280;69940;53.120;8.764;2023-07-31T00:23:16;100882.00;;;17.89;76.63
79705;BME280;69940;53.120;8.764;2023-07-31T00:25:46;100881.00;;;17.88;76.65
79705;BME280;69940;53.120;8.764;2023-07-31T00:28:16;100880.00;;;17.88;76.73
79705;BME280;69940;53.120;8.764;2023-07-31T00:30:46;100878.00;;;17.87;76.65
79705;BME280;69940;53.120;8.764;2023-07-31T00:33:16;100877.00;;;17.87;76.63
79705;BME280;69940;53.120;8.764;2023-07-31T00:35:47;100876.00;;;17.87;76.56
79705;BME280;69940;53.120;8.764;2023-07-31T00:38:16;100873.00;;;17.87;76.58
79705;BME280;69940;53.120;8.764;2023-07-31T00:40:46;100871.00;;;17.87;76.54
79705;BME280;69940;53.120;8.764;2023-07-31T00:43:16;100869.00;;;17.87;76.58
79705;BME280;69940;53.120;8.764;2023-07-31T00:45:46;100867.00;;;17.87;76.63
79705;BME280;69940;53.120;8.764;2023-07-31T00:48:15;100863.00;;;17.87;76.70
79705;BME280;69940;53.120;8.764;2023-07-31T00:50:45;100861.00;;;17.86;76.77
79705;BME280;69940;53.120;8.764;2023-07-31T00:53:16;100860.00;;;17.86;76.82
79705;BME280;69940;53.120;8.764;2023-07-31T00:55:46;100859.00;;;17.86;76.83
79705;BME280;69940;53.120;8.764;2023-07-31T00:58:16;100859.00;;;17.86;76.88
79705;BME280;69940;53.120;8.764;2023-07-31T01:00:46;100857.00;;;17.86;76.95
79705;BME280;69940;53.120;8.764;2023-07-31T01:03:16;100856.00;;;17.85;77.10
79705;BME280;69940;53.120;8.764;2023-07-31T01:08:22;100851.00;;;17.85;77.19
79705;BME280;69940;53.120;8.764;2023-07-31T01:10:49;100851.00;;;17.85;77.22
79705;BME280;69940;53.120;8.764;2023-07-31T01:13:17;100845.00;;;17.84;77.27
79705;BME280;69940;53.120;8.764;2023-07-31T01:15:46;100844.00;;;17.84;77.45
79705;BME280;69940;53.120;8.764;2023-07-31T01:18:16;100844.00;;;17.83;77.48
79705;BME280;69940;53.120;8.764;2023-07-31T01:20:52;100844.00;;;17.82;77.51
79705;BME280;69940;53.120;8.764;2023-07-31T01:23:35;100847.00;;;17.81;77.66
79705;BME280;69940;53.120;8.764;2023-07-31T01:26:00;100848.00;;;17.80;77.75
79705;BME280;69940;53.120;8.764;2023-07-31T01:28:20;100851.00;;;17.80;77.84
79705;BME280;69940;53.120;8.764;2023-07-31T01:30:48;100853.00;;;17.81;77.87
79705;BME280;69940;53.120;8.764;2023-07-31T01:33:16;100854.00;;;17.81;77.90
79705;BME280;69940;53.120;8.764;2023-07-31T01:35:48;100853.00;;;17.82;77.96
79705;BME280;69940;53.120;8.764;2023-07-31T01:38:20;100850.00;;;17.82;78.00
79705;BME280;69940;53.120;8.764;2023-07-31T01:40:50;100847.00;;;17.82;78.08
79705;BME280;69940;53.120;8.764;2023-07-31T01:43:16;100843.00;;;17.82;78.04
79705;BME280;69940;53.120;8.764;2023-07-31T01:45:46;100840.00;;;17.82;78.01
79705;BME280;69940;53.120;8.764;2023-07-31T01:48:16;100838.00;;;17.82;78.22
79705;BME280;69940;53.120;8.764;2023-07-31T01:50:46;100833.00;;;17.81;78.29
79705;BME280;69940;53.120;8.764;2023-07-31T01:53:16;100832.00;;;17.81;78.41
79705;BME280;69940;53.120;8.764;2023-07-31T01:55:45;100828.00;;;17.80;78.54
79705;BME280;69940;53.120;8.764;2023-07-31T01:58:16;100825.00;;;17.77;79.02
79705;BME280;69940;53.120;8.764;2023-07-31T02:00:47;100823.00;;;17.75;79.17
79705;BME280;69940;53.120;8.764;2023-07-31T02:03:16;100819.00;;;17.73;79.44
79705;BME280;69940;53.120;8.764;2023-07-31T02:05:47;100815.00;;;17.71;79.64
79705;BME280;69940;53.120;8.764;2023-07-31T02:08:16;100812.00;;;17.68;79.83
79705;BME280;69940;53.120;8.764;2023-07-31T02:10:46;100810.00;;;17.66;80.30
79705;BME280;69940;53.120;8.764;2023-07-31T02:13:16;100807.00;;;17.63;80.42
79705;BME280;69940;53.120;8.764;2023-07-31T02:15:46;100803.00;;;17.59;80.69
79705;BME280;69940;53.120;8.764;2023-07-31T02:18:16;100801.00;;;17.56;80.71
79705;BME280;69940;53.120;8.764;2023-07-31T02:20:50;100798.00;;;17.53;80.92
79705;BME280;69940;53.120;8.764;2023-07-31T02:23:16;100794.00;;;17.50;81.21
79705;BME280;69940;53.120;8.764;2023-07-31T02:25:46;100790.00;;;17.48;81.16
79705;BME280;69940;53.120;8.764;2023-07-31T02:28:16;100788.00;;;17.45;81.27
79705;BME280;69940;53.120;8.764;2023-07-31T02:30:47;100787.00;;;17.42;81.30
79705;BME280;69940;53.120;8.764;2023-07-31T02:33:16;100788.00;;;17.40;81.45
79705;BME280;69940;53.120;8.764;2023-07-31T02:35:46;100789.00;;;17.37;81.52
79705;BME280;69940;53.120;8.764;2023-07-31T02:38:16;100790.00;;;17.36;81.65
79705;BME280;69940;53.120;8.764;2023-07-31T02:40:46;100791.00;;;17.35;81.64
79705;BME280;69940;53.120;8.764;2023-07-31T02:43:16;100789.00;;;17.33;81.58
79705;BME280;69940;53.120;8.764;2023-07-31T02:45:48;100787.00;;;17.32;81.68
79705;BME280;69940;53.120;8.764;2023-07-31T02:48:16;100786.00;;;17.31;81.80
79705;BME280;69940;53.120;8.764;2023-07-31T02:50:46;100784.00;;;17.29;81.90
79705;BME280;69940;53.120;8.764;2023-07-31T02:53:16;100784.00;;;17.28;82.10
79705;BME280;69940;53.120;8.764;2023-07-31T02:55:46;100784.00;;;17.27;82.09
79705;BME280;69940;53.120;8.764;2023-07-31T02:58:16;100784.00;;;17.26;82.13
79705;BME280;69940;53.120;8.764;2023-07-31T03:00:46;100785.00;;;17.26;82.25
79705;BME280;69940;53.120;8.764;2023-07-31T03:03:16;100785.00;;;17.26;82.27
79705;BME280;69940;53.120;8.764;2023-07-31T03:05:46;100787.00;;;17.25;82.31
79705;BME280;69940;53.120;8.764;2023-07-31T03:08:16;100788.00;;;17.25;82.48
79705;BME280;69940;53.120;8.764;2023-07-31T03:10:46;100786.00;;;17.25;82.45
79705;BME280;69940;53.120;8.764;2023-07-31T03:13:16;100783.00;;;17.24;82.47
79705;BME280;69940;53.120;8.764;2023-07-31T03:15:46;100782.00;;;17.24;82.57
79705;BME280;69940;53.120;8.764;2023-07-31T03:18:16;100780.00;;;17.25;82.52
79705;BME280;69940;53.120;8.764;2023-07-31T03:20:46;100779.00;;;17.25;82.43
79705;BME280;69940;53.120;8.764;2023-07-31T03:23:16;100777.00;;;17.26;82.51
79705;BME280;69940;53.120;8.764;2023-07-31T03:25:58;100778.00;;;17.26;82.51
79705;BME280;69940;53.120;8.764;2023-07-31T03:28:16;100777.00;;;17.26;82.53
79705;BME280;69940;53.120;8.764;2023-07-31T03:30:46;100777.00;;;17.26;82.40
79705;BME280;69940;53.120;8.764;2023-07-31T03:33:16;100777.00;;;17.26;82.55
79705;BME280;69940;53.120;8.764;2023-07-31T03:35:46;100776.00;;;17.25;82.53
79705;BME280;69940;53.120;8.764;2023-07-31T03:38:16;100775.00;;;17.24;82.72
79705;BME280;69940;53.120;8.764;2023-07-31T03:40:46;100774.00;;;17.23;82.79
79705;BME280;69940;53.120;8.764;2023-07-31T03:43:16;100774.00;;;17.23;82.82
79705;BME280;69940;53.120;8.764;2023-07-31T03:45:45;100772.00;;;17.22;82.83
79705;BME280;69940;53.120;8.764;2023-07-31T03:48:16;100771.00;;;17.22;82.78
79705;BME280;69940;53.120;8.764;2023-07-31T03:50:46;100770.00;;;17.22;82.80
79705;BME280;69940;53.120;8.764;2023-07-31T03:53:16;100768.00;;;17.22;82.95
79705;BME280;69940;53.120;8.764;2023-07-31T03:55:46;100767.00;;;17.22;82.96
79705;BME280;69940;53.120;8.764;2023-07-31T03:58:16;100766.00;;;17.22;82.98
79705;BME280;69940;53.120;8.764;2023-07-31T04:00:47;100766.00;;;17.22;82.90
79705;BME280;69940;53.120;8.764;2023-07-31T04:03:16;100765.00;;;17.22;82.94
79705;BME280;69940;53.120;8.764;2023-07-31T04:05:46;100765.00;;;17.22;83.01
79705;BME280;69940;53.120;8.764;2023-07-31T04:08:16;100765.00;;;17.22;82.98
79705;BME280;69940;53.120;8.764;2023-07-31T04:10:46;100764.00;;;17.23;83.04
79705;BME280;69940;53.120;8.764;2023-07-31T04:13:16;100764.00;;;17.23;83.16
79705;BME280;69940;53.120;8.764;2023-07-31T04:15:48;100762.00;;;17.23;82.98
79705;BME280;69940;53.120;8.764;2023-07-31T04:18:16;100759.00;;;17.23;83.10
79705;BME280;69940;53.120;8.764;2023-07-31T04:20:46;100757.00;;;17.22;83.13
79705;BME280;69940;53.120;8.764;2023-07-31T04:23:16;100754.00;;;17.22;83.18
79705;BME280;69940;53.120;8.764;2023-07-31T04:25:46;100750.00;;;17.21;83.23
79705;BME280;69940;53.120;8.764;2023-07-31T04:28:16;100746.00;;;17.21;83.16
79705;BME280;69940;53.120;8.764;2023-07-31T04:30:46;100744.00;;;17.21;83.26
79705;BME280;69940;53.120;8.764;2023-07-31T04:33:16;100741.00;;;17.21;83.24
79705;BME280;69940;53.120;8.764;2023-07-31T04:35:53;100738.00;;;17.21;83.25
79705;BME280;69940;53.120;8.764;2023-07-31T04:38:16;100735.00;;;17.20;83.32
79705;BME280;69940;53.120;8.764;2023-07-31T04:40:46;100732.00;;;17.20;83.29
79705;BME280;69940;53.120;8.764;2023-07-31T04:43:16;100729.00;;;17.20;83.25
79705;BME280;69940;53.120;8.764;2023-07-31T04:45:46;100729.00;;;17.20;83.23
79705;BME280;69940;53.120;8.764;2023-07-31T04:48:16;100728.00;;;17.21;83.40
79705;BME280;69940;53.120;8.764;2023-07-31T04:50:46;100728.00;;;17.21;83.44
79705;BME280;69940;53.120;8.764;2023-07-31T04:53:16;100726.00;;;17.21;83.30
79705;BME280;69940;53.120;8.764;2023-07-31T04:55:46;100724.00;;;17.21;83.33
79705;BME280;69940;53.120;8.764;2023-07-31T04:58:16;100722.00;;;17.21;83.44
79705;BME280;69940;53.120;8.764;2023-07-31T05:00:46;100721.00;;;17.21;83.47
79705;BME280;69940;53.120;8.764;2023-07-31T05:03:16;100719.00;;;17.22;83.56
79705;BME280;69940;53.120;8.764;2023-07-31T05:05:46;100717.00;;;17.23;83.47
79705;BME280;69940;53.120;8.764;2023-07-31T05:08:18;100715.00;;;17.24;83.44
79705;BME280;69940;53.120;8.764;2023-07-31T05:10:46;100714.00;;;17.25;83.35
79705;BME280;69940;53.120;8.764;2023-07-31T05:13:16;100714.00;;;17.25;83.49
79705;BME280;69940;53.120;8.764;2023-07-31T05:15:46;100712.00;;;17.26;83.48
79705;BME280;69940;53.120;8.764;2023-07-31T05:18:16;100712.00;;;17.27;83.47
79705;BME280;69940;53.120;8.764;2023-07-31T05:20:46;100712.00;;;17.29;83.46
79705;BME280;69940;53.120;8.764;2023-07-31T05:23:15;100712.00;;;17.29;83.40
79705;BME280;69940;53.120;8.764;2023-07-31T05:25:46;100712.00;;;17.30;83.39
79705;BME280;69940;53.120;8.764;2023-07-31T05:28:16;100712.00;;;17.31;83.39
79705;BME280;69940;53.120;8.764;2023-07-31T05:30:46;100710.00;;;17.31;83.49
79705;BME280;69940;53.120;8.764;2023-07-31T05:33:16;100708.00;;;17.32;83.62
79705;BME280;69940;53.120;8.764;2023-07-31T05:35:46;100706.00;;;17.32;83.62
79705;BME280;69940;53.120;8.764;2023-07-31T05:38:16;100705.00;;;17.34;83.51
79705;BME280;69940;53.120;8.764;2023-07-31T05:40:46;100703.00;;;17.36;83.49
79705;BME280;69940;53.120;8.764;2023-07-31T05:43:16;100700.00;;;17.38;83.40
79705;BME280;69940;53.120;8.764;2023-07-31T05:45:46;100696.00;;;17.39;83.49
79705;BME280;69940;53.120;8.764;2023-07-31T05:48:16;100692.00;;;17.40;83.58
79705;BME280;69940;53.120;8.764;2023-07-31T05:50:46;100690.00;;;17.41;83.60
79705;BME280;69940;53.120;8.764;2023-07-31T05:53:16;100687.00;;;17.43;83.69
79705;BME280;69940;53.120;8.764;2023-07-31T05:55:46;100685.00;;;17.46;83.54
79705;BME280;69940;53.120;8.764;2023-07-31T05:58:16;100683.00;;;17.47;83.49
79705;BME280;69940;53.120;8.764;2023-07-31T06:00:46;100681.00;;;17.49;83.66
79705;BME280;69940;53.120;8.764;2023-07-31T06:03:16;100681.00;;;17.50;83.73
79705;BME280;69940;53.120;8.764;2023-07-31T06:05:46;100681.00;;;17.50;83.70
79705;BME280;69940;53.120;8.764;2023-07-31T06:08:16;100680.00;;;17.51;83.79
79705;BME280;69940;53.120;8.764;2023-07-31T06:10:45;100678.00;;;17.52;83.87
79705;BME280;69940;53.120;8.764;2023-07-31T06:13:16;100677.00;;;17.52;83.95
79705;BME280;69940;53.120;8.764;2023-07-31T06:15:45;100675.00;;;17.53;83.90
79705;BME280;69940;53.120;8.764;2023-07-31T06:18:16;100675.00;;;17.53;84.04
79705;BME280;69940;53.120;8.764;2023-07-31T06:20:46;100675.00;;;17.54;84.06
79705;BME280;69940;53.120;8.764;2023-07-31T06:23:15;100673.00;;;17.55;84.12
79705;BME280;69940;53.120;8.764;2023-07-31T06:25:46;100670.00;;;17.57;84.05
79705;BME280;69940;53.120;8.764;2023-07-31T06:28:16;100667.00;;;17.58;83.96
79705;BME280;69940;53.120;8.764;2023-07-31T06:30:46;100665.00;;;17.59;84.05
79705;BME280;69940;53.120;8.764;2023-07-31T06:33:16;100663.00;;;17.59;84.20
79705;BME280;69940;53.120;8.764;2023-07-31T06:35:46;100660.00;;;17.58;84.02
79705;BME280;69940;53.120;8.764;2023-07-31T06:38:16;100656.00;;;17.58;84.19
79705;BME280;69940;53.120;8.764;2023-07-31T06:40:46;100654.00;;;17.58;84.33
79705;BME280;69940;53.120;8.764;2023-07-31T06:43:16;100652.00;;;17.57;84.46
79705;BME280;69940;53.120;8.764;2023-07-31T06:45:47;100649.00;;;17.56;84.41
79705;BME280;69940;53.120;8.764;2023-07-31T06:48:16;100647.00;;;17.56;84.41
79705;BME280;69940;53.120;8.764;2023-07-31T06:50:46;100644.00;;;17.55;84.48
79705;BME280;69940;53.120;8.764;2023-07-31T06:53:16;100643.00;;;17.55;84.40
79705;BME280;69940;53.120;8.764;2023-07-31T06:55:46;100643.00;;;17.55;84.58
79705;BME280;69940;53.120;8.764;2023-07-31T06:58:16;100643.00;;;17.55;84.55
79705;BME280;69940;53.120;8.764;2023-07-31T07:00:46;100642.00;;;17.56;84.58
79705;BME280;69940;53.120;8.764;2023-07-31T07:03:18;100642.00;;;17.57;84.68
79705;BME280;69940;53.120;8.764;2023-07-31T07:05:49;100641.00;;;17.58;84.54
79705;BME280;69940;53.120;8.764;2023-07-31T07:08:17;100639.00;;;17.60;84.68
79705;BME280;69940;53.120;8.764;2023-07-31T07:10:46;100638.00;;;17.62;84.72
79705;BME280;69940;53.120;8.764;2023-07-31T07:13:16;100637.00;;;17.64;84.74
79705;BME280;69940;53.120;8.764;2023-07-31T07:15:49;100635.00;;;17.67;84.80
79705;BME280;69940;53.120;8.764;2023-07-31T07:18:16;100633.00;;;17.69;84.91
79705;BME280;69940;53.120;8.764;2023-07-31T07:20:46;100631.00;;;17.72;84.91
79705;BME280;69940;53.120;8.764;2023-07-31T07:23:15;100629.00;;;17.74;84.96
79705;BME280;69940;53.120;8.764;2023-07-31T07:25:47;100626.00;;;17.76;85.05
79705;BME280;69940;53.120;8.764;2023-07-31T07:28:16;100625.00;;;17.79;85.12
79705;BME280;69940;53.120;8.764;2023-07-31T07:30:50;100624.00;;;17.81;85.21
79705;BME280;69940;53.120;8.764;2023-07-31T07:33:16;100622.00;;;17.83;85.26
79705;BME280;69940;53.120;8.764;2023-07-31T07:35:46;100622.00;;;17.84;85.42
79705;BME280;69940;53.120;8.764;2023-07-31T07:38:16;100621.00;;;17.85;85.49
79705;BME280;69940;53.120;8.764;2023-07-31T07:40:51;100620.00;;;17.86;85.61
79705;BME280;69940;53.120;8.764;2023-07-31T07:43:16;100619.00;;;17.87;85.55
79705;BME280;69940;53.120;8.764;2023-07-31T07:45:46;100619.00;;;17.88;85.54
79705;BME280;69940;53.120;8.764;2023-07-31T07:48:18;100617.00;;;17.89;85.50
79705;BME280;69940;53.120;8.764;2023-07-31T07:50:46;100617.00;;;17.90;85.61
79705;BME280;69940;53.120;8.764;2023-07-31T07:53:16;100617.00;;;17.92;85.35
79705;BME280;69940;53.120;8.764;2023-07-31T07:55:46;100617.00;;;17.93;85.35
79705;BME280;69940;53.120;8.764;2023-07-31T07:58:16;100614.00;;;17.93;85.42
79705;BME280;69940;53.120;8.764;2023-07-31T08:00:50;100613.00;;;17.94;85.57
79705;BME280;69940;53.120;8.764;2023-07-31T08:03:17;100613.00;;;17.94;85.52
79705;BME280;69940;53.120;8.764;2023-07-31T08:05:46;100611.00;;;17.95;85.58
79705;BME280;69940;53.120;8.764;2023-07-31T08:08:17;100608.00;;;17.96;85.55
79705;BME280;69940;53.120;8.764;2023-07-31T08:10:46;100605.00;;;17.98;85.54
79705;BME280;69940;53.120;8.764;2023-07-31T08:13:16;100603.00;;;18.01;85.35
79705;BME280;69940;53.120;8.764;2023-07-31T08:15:46;100601.00;;;18.03;85.29
79705;BME280;69940;53.120;8.764;2023-07-31T08:18:18;100600.00;;;18.05;85.12
79705;BME280;69940;53.120;8.764;2023-07-31T08:20:46;100598.00;;;18.07;85.07
79705;BME280;69940;53.120;8.764;2023-07-31T08:23:16;100596.00;;;18.10;84.92
79705;BME280;69940;53.120;8.764;2023-07-31T08:25:46;100595.00;;;18.13;84.77
79705;BME280;69940;53.120;8.764;2023-07-31T08:28:16;100593.00;;;18.15;84.51
79705;BME280;69940;53.120;8.764;2023-07-31T08:30:46;100591.00;;;18.19;84.34
79705;BME280;69940;53.120;8.764;2023-07-31T08:33:16;100589.00;;;18.23;84.31
79705;BME280;69940;53.120;8.764;2023-07-31T08:35:46;100588.00;;;18.27;84.01
79705;BME280;69940;53.120;8.764;2023-07-31T08:38:16;100586.00;;;18.30;84.01
79705;BME280;69940;53.120;8.764;2023-07-31T08:40:46;100582.00;;;18.32;83.86
79705;BME280;69940;53.120;8.764;2023-07-31T08:43:16;100580.00;;;18.33;83.85
79705;BME280;69940;53.120;8.764;2023-07-31T08:45:47;100578.00;;;18.34;84.01
79705;BME280;69940;53.120;8.764;2023-07-31T08:48:17;100576.00;;;18.37;83.79
79705;BME280;69940;53.120;8.764;2023-07-31T08:50:46;100574.00;;;18.42;83.59
79705;BME280;69940;53.120;8.764;2023-07-31T08:53:18;100572.00;;;18.48;83.24
79705;BME280;69940;53.120;8.764;2023-07-31T08:55:47;100571.00;;;18.52;82.91
79705;BME280;69940;53.120;8.764;2023-07-31T08:58:17;100571.00;;;18.56;82.87
79705;BME280;69940;53.120;8.764;2023-07-31T09:00:46;100571.00;;;18.61;82.99
79705;BME280;69940;53.120;8.764;2023-07-31T09:03:18;100571.00;;;18.65;82.79
79705;BME280;69940;53.120;8.764;2023-07-31T09:05:47;100571.00;;;18.68;82.61
79705;BME280;69940;53.120;8.764;2023-07-31T09:08:19;100571.00;;;18.70;82.60
79705;BME280;69940;53.120;8.764;2023-07-31T09:10:50;100572.00;;;18.71;82.74
79705;BME280;69940;53.120;8.764;2023-07-31T09:13:16;100571.00;;;18.72;82.61
79705;BME280;69940;53.120;8.764;2023-07-31T09:15:46;100571.00;;;18.73;82.62
79705;BME280;69940;53.120;8.764;2023-07-31T09:18:23;100571.00;;;18.73;82.63
79705;BME280;69940;53.120;8.764;2023-07-31T09:21:00;100570.00;;;18.71;82.38
79705;BME280;69940;53.120;8.764;2023-07-31T09:23:17;100568.00;;;18.70;82.63
79705;BME280;69940;53.120;8.764;2023-07-31T09:25:46;100567.00;;;18.68;82.60
79705;BME280;69940;53.120;8.764;2023-07-31T09:28:16;100564.00;;;18.66;82.39
79705;BME280;69940;53.120;8.764;2023-07-31T09:30:51;100563.00;;;18.63;82.22
79705;BME280;69940;53.120;8.764;2023-07-31T09:33:17;100561.00;;;18.62;82.31
79705;BME280;69940;53.120;8.764;2023-07-31T09:35:47;100560.00;;;18.60;82.45
79705;BME280;69940;53.120;8.764;2023-07-31T09:38:16;100557.00;;;18.60;82.48
79705;BME280;69940;53.120;8.764;2023-07-31T09:40:47;100554.00;;;18.62;82.54
79705;BME280;69940;53.120;8.764;2023-07-31T09:43:20;100553.00;;;18.63;82.79
79705;BME280;69940;53.120;8.764;2023-07-31T09:45:46;100550.00;;;18.63;83.17
79705;BME280;69940;53.120;8.764;2023-07-31T09:48:18;100547.00;;;18.64;83.09
79705;BME280;69940;53.120;8.764;2023-07-31T09:50:47;100544.00;;;18.67;83.22
79705;BME280;69940;53.120;8.764;2023-07-31T09:53:16;100542.00;;;18.69;83.48
79705;BME280;69940;53.120;8.764;2023-07-31T09:55:46;100539.00;;;18.74;83.21
79705;BME280;69940;53.120;8.764;2023-07-31T09:58:16;100535.00;;;18.82;83.01
79705;BME280;69940;53.120;8.764;2023-07-31T10:00:46;100532.00;;;18.90;82.79
79705;BME280;69940;53.120;8.764;2023-07-31T10:03:16;100529.00;;;18.96;82.77
79705;BME280;69940;53.120;8.764;2023-07-31T10:05:50;100527.00;;;19.00;82.54
79705;BME280;69940;53.120;8.764;2023-07-31T10:08:18;100524.00;;;19.01;82.74
79705;BME280;69940;53.120;8.764;2023-07-31T10:10:46;100521.00;;;19.01;82.90
79705;BME280;69940;53.120;8.764;2023-07-31T10:13:16;100518.00;;;19.00;83.19
79705;BME280;69940;53.120;8.764;2023-07-31T10:15:46;100515.00;;;18.98;83.17
79705;BME280;69940;53.120;8.764;2023-07-31T10:18:16;100515.00;;;18.96;83.20
79705;BME280;69940;53.120;8.764;2023-07-31T10:20:47;100512.00;;;18.92;83.44
79705;BME280;69940;53.120;8.764;2023-07-31T10:23:16;100509.00;;;18.90;83.51
79705;BME280;69940;53.120;8.764;2023-07-31T10:25:47;100507.00;;;18.89;83.86
79705;BME280;69940;53.120;8.764;2023-07-31T10:28:16;100504.00;;;18.89;83.84
79705;BME280;69940;53.120;8.764;2023-07-31T10:30:46;100502.00;;;18.90;83.87
79705;BME280;69940;53.120;8.764;2023-07-31T10:33:16;100499.00;;;18.92;83.83
79705;BME280;69940;53.120;8.764;2023-07-31T10:35:47;100497.00;;;18.94;83.68
79705;BME280;69940;53.120;8.764;2023-07-31T10:38:16;100495.00;;;18.96;83.79
79705;BME280;69940;53.120;8.764;2023-07-31T10:40:46;100493.00;;;19.00;83.69
79705;BME280;69940;53.120;8.764;2023-07-31T10:43:25;100490.00;;;19.02;83.67
79705;BME280;69940;53.120;8.764;2023-07-31T10:45:45;100487.00;;;19.05;83.81
79705;BME280;69940;53.120;8.764;2023-07-31T10:48:16;100484.00;;;19.06;83.97
79705;BME280;69940;53.120;8.764;2023-07-31T10:50:50;100482.00;;;19.07;83.97
79705;BME280;69940;53.120;8.764;2023-07-31T10:53:23;100481.00;;;19.08;83.93
79705;BME280;69940;53.120;8.764;2023-07-31T10:55:46;100479.00;;;19.11;83.82
79705;BME280;69940;53.120;8.764;2023-07-31T10:58:18;100476.00;;;19.12;83.81
79705;BME280;69940;53.120;8.764;2023-07-31T11:00:46;100475.00;;;19.13;84.01
79705;BME280;69940;53.120;8.764;2023-07-31T11:03:17;100476.00;;;19.15;84.04
79705;BME280;69940;53.120;8.764;2023-07-31T11:05:50;100473.00;;;19.16;84.02
79705;BME280;69940;53.120;8.764;2023-07-31T11:08:23;100470.00;;;19.17;84.13
79705;BME280;69940;53.120;8.764;2023-07-31T11:10:47;100470.00;;;19.20;84.26
79705;BME280;69940;53.120;8.764;2023-07-31T11:13:16;100466.00;;;19.23;84.01
79705;BME280;69940;53.120;8.764;2023-07-31T11:15:46;100462.00;;;19.24;83.94
79705;BME280;69940;53.120;8.764;2023-07-31T11:18:17;100460.00;;;19.24;84.01
79705;BME280;69940;53.120;8.764;2023-07-31T11:20:46;100458.00;;;19.26;83.82
79705;BME280;69940;53.120;8.764;2023-07-31T11:23:17;100456.00;;;19.31;83.68
79705;BME280;69940;53.120;8.764;2023-07-31T11:25:46;100453.00;;;19.35;83.46
79705;BME280;69940;53.120;8.764;2023-07-31T11:28:19;100450.00;;;19.38;83.41
79705;BME280;69940;53.120;8.764;2023-07-31T11:30:46;100448.00;;;19.40;83.63
79705;BME280;69940;53.120;8.764;2023-07-31T11:33:16;100448.00;;;19.41;83.55
79705;BME280;69940;53.120;8.764;2023-07-31T11:35:47;100446.00;;;19.43;83.71
79705;BME280;69940;53.120;8.764;2023-07-31T11:38:26;100446.00;;;19.44;83.39
79705;BME280;69940;53.120;8.764;2023-07-31T11:40:46;100445.00;;;19.44;83.44
79705;BME280;69940;53.120;8.764;2023-07-31T11:43:18;100443.00;;;19.44;83.44
79705;BME280;69940;53.120;8.764;2023-07-31T11:45:52;100442.00;;;19.46;83.73
79705;BME280;69940;53.120;8.764;2023-07-31T11:48:19;100441.00;;;19.50;83.71
79705;BME280;69940;53.120;8.764;2023-07-31T11:50:48;100441.00;;;19.53;83.68
79705;BME280;69940;53.120;8.764;2023-07-31T11:53:17;100439.00;;;19.55;83.84
79705;BME280;69940;53.120;8.764;2023-07-31T11:55:46;100438.00;;;19.56;83.93
79705;BME280;69940;53.120;8.764;2023-07-31T11:58:16;100437.00;;;19.58;84.12
79705;BME280;69940;53.120;8.764;2023-07-31T12:00:46;100437.00;;;19.60;84.37
79705;BME280;69940;53.120;8.764;2023-07-31T12:03:16;100435.00;;;19.62;84.44
79705;BME280;69940;53.120;8.764;2023-07-31T12:05:47;100434.00;;;19.63;84.68
79705;BME280;69940;53.120;8.764;2023-07-31T12:08:20;100433.00;;;19.64;84.57
79705;BME280;69940;53.120;8.764;2023-07-31T12:10:50;100432.00;;;19.65;84.59
79705;BME280;69940;53.120;8.764;2023-07-31T12:13:24;100431.00;;;19.67;84.63
79705;BME280;69940;53.120;8.764;2023-07-31T12:15:46;100428.00;;;19.69;84.78
79705;BME280;69940;53.120;8.764;2023-07-31T12:18:19;100425.00;;;19.71;84.79
79705;BME280;69940;53.120;8.764;2023-07-31T12:20:47;100424.00;;;19.74;84.76
79705;BME280;69940;53.120;8.764;2023-07-31T12:23:20;100421.00;;;19.77;84.59
79705;BME280;69940;53.120;8.764;2023-07-31T12:25:46;100419.00;;;19.79;84.70
79705;BME280;69940;53.120;8.764;2023-07-31T12:28:22;100416.00;;;19.80;84.62
79705;BME280;69940;53.120;8.764;2023-07-31T12:30:46;100412.00;;;19.79;84.84
79705;BME280;69940;53.120;8.764;2023-07-31T12:33:16;100409.00;;;19.78;85.04
79705;BME280;69940;53.120;8.764;2023-07-31T12:35:47;100406.00;;;19.78;85.13
79705;BME280;69940;53.120;8.764;2023-07-31T12:38:16;100403.00;;;19.79;84.83
79705;BME280;69940;53.120;8.764;2023-07-31T12:40:46;100401.00;;;19.80;84.96
79705;BME280;69940;53.120;8.764;2023-07-31T12:43:16;100398.00;;;19.81;84.99
79705;BME280;69940;53.120;8.764;2023-07-31T12:45:46;100395.00;;;19.80;85.13
79705;BME280;69940;53.120;8.764;2023-07-31T12:48:16;100394.00;;;19.79;85.38
79705;BME280;69940;53.120;8.764;2023-07-31T12:50:46;100391.00;;;19.78;85.01
79705;BME280;69940;53.120;8.764;2023-07-31T12:53:16;100388.00;;;19.76;84.99
79705;BME280;69940;53.120;8.764;2023-07-31T12:55:46;100388.00;;;19.76;85.17
79705;BME280;69940;53.120;8.764;2023-07-31T12:58:16;100387.00;;;19.78;84.84
79705;BME280;69940;53.120;8.764;2023-07-31T13:00:46;100386.00;;;19.81;84.76
79705;BME280;69940;53.120;8.764;2023-07-31T13:03:16;100387.00;;;19.83;84.52
79705;BME280;69940;53.120;8.764;2023-07-31T13:05:46;100384.00;;;19.84;84.39